sensor_id;sensor_type;location;lat;lon;timestamp;pressure;altitude;pressure_sealevel;temperature;humidity
55538;BME280;41383;51.418;7.286;2023-05-07T00:00:45;99896.50;;;15.04;90.01
55538;BME280;41383;51.418;7.286;2023-05-07T00:03:11;99894.31;;;15.01;90.28
55538;BME280;41383;51.418;7.286;2023-05-07T00:05:36;99897.03;;;15.07;90.32
55538;BME280;41383;51.418;7.286;2023-05-07T00:08:03;99894.81;;;15.09;89.85
55538;BME280;41383;51.418;7.286;2023-05-07T00:10:28;99894.59;;;15.05;89.83
55538;BME280;41383;51.418;7.286;2023-05-07T00:12:53;99891.03;;;15.04;89.69
55538;BME280;41383;51.418;7.286;2023-05-07T00:15:19;99901.47;;;15.02;89.81
55538;BME280;41383;51.418;7.286;2023-05-07T00:17:44;99903.72;;;14.95;90.18
55538;BME280;41383;51.418;7.286;2023-05-07T00:20:10;99900.47;;;14.93;89.98
55538;BME280;41383;51.418;7.286;2023-05-07T00:22:35;99904.25;;;14.97;89.96
55538;BME280;41383;51.418;7.286;2023-05-07T00:25:01;99902.41;;;14.92;90.18
55538;BME280;41383;51.418;7.286;2023-05-07T00:27:26;99894.44;;;14.91;90.75
55538;BME280;41383;51.418;7.286;2023-05-07T00:29:51;99905.41;;;14.91;90.55
55538;BME280;41383;51.418;7.286;2023-05-07T00:32:16;99902.41;;;14.92;90.45
55538;BME280;41383;51.418;7.286;2023-05-07T00:34:43;99897.72;;;14.93;90.65
55538;BME280;41383;51.418;7.286;2023-05-07T00:37:08;99900.97;;;14.95;90.30
55538;BME280;41383;51.418;7.286;2023-05-07T00:39:34;99891.13;;;14.94;90.66
55538;BME280;41383;51.418;7.286;2023-05-07T00:41:59;99897.16;;;14.96;90.38
55538;BME280;41383;51.418;7.286;2023-05-07T00:44:26;99891.66;;;14.96;90.45
55538;BME280;41383;51.418;7.286;2023-05-07T00:46:51;99888.09;;;14.96;90.58
55538;BME280;41383;51.418;7.286;2023-05-07T00:49:17;99886.16;;;14.96;90.68
55538;BME280;41383;51.418;7.286;2023-05-07T00:51:43;99897.16;;;14.96;90.67
55538;BME280;41383;51.418;7.286;2023-05-07T00:54:09;99896.03;;;14.97;90.77
55538;BME280;41383;51.418;7.286;2023-05-07T00:56:36;99890.00;;;14.95;90.58
55538;BME280;41383;51.418;7.286;2023-05-07T00:59:02;99888.31;;;14.99;90.99
55538;BME280;41383;51.418;7.286;2023-05-07T01:01:28;99883.94;;;14.98;90.41
55538;BME280;41383;51.418;7.286;2023-05-07T01:03:53;99880.06;;;14.99;91.05
55538;BME280;41383;51.418;7.286;2023-05-07T01:06:19;99882.78;;;15.04;90.64
55538;BME280;41383;51.418;7.286;2023-05-07T01:08:46;99883.59;;;15.05;90.40
55538;BME280;41383;51.418;7.286;2023-05-07T01:11:12;99876.69;;;15.08;90.36
55538;BME280;41383;51.418;7.286;2023-05-07T01:13:39;99874.47;;;15.10;90.23
55538;BME280;41383;51.418;7.286;2023-05-07T01:16:05;99881.66;;;15.05;90.24
55538;BME280;41383;51.418;7.286;2023-05-07T01:18:31;99880.91;;;15.00;90.88
55538;BME280;41383;51.418;7.286;2023-05-07T01:20:58;99876.16;;;15.05;90.70
55538;BME280;41383;51.418;7.286;2023-05-07T01:23:25;99878.91;;;15.05;90.40
55538;BME280;41383;51.418;7.286;2023-05-07T01:25:53;99881.09;;;15.09;90.16
55538;BME280;41383;51.418;7.286;2023-05-07T01:28:19;99880.50;;;15.12;90.16
55538;BME280;41383;51.418;7.286;2023-05-07T01:30:48;99875.06;;;15.07;89.69
55538;BME280;41383;51.418;7.286;2023-05-07T01:33:19;99872.84;;;15.09;90.16
55538;BME280;41383;51.418;7.286;2023-05-07T01:35:49;99877.28;;;15.04;90.03
55538;BME280;41383;51.418;7.286;2023-05-07T01:38:15;99881.72;;;15.00;90.06
55538;BME280;41383;51.418;7.286;2023-05-07T01:40:41;99874.03;;;15.02;89.94
55538;BME280;41383;51.418;7.286;2023-05-07T01:43:07;99880.06;;;14.99;90.17
55538;BME280;41383;51.418;7.286;2023-05-07T01:45:33;99877.41;;;14.94;90.36
55538;BME280;41383;51.418;7.286;2023-05-07T01:47:59;99872.56;;;14.86;90.63
55538;BME280;41383;51.418;7.286;2023-05-07T01:50:25;99882.16;;;14.83;90.49
55538;BME280;41383;51.418;7.286;2023-05-07T01:52:51;99883.91;;;14.74;90.83
55538;BME280;41383;51.418;7.286;2023-05-07T01:55:17;99889.63;;;14.77;91.07
55538;BME280;41383;51.418;7.286;2023-05-07T01:57:42;99875.84;;;14.82;90.46
55538;BME280;41383;51.418;7.286;2023-05-07T02:00:08;99882.44;;;14.81;90.41
55538;BME280;41383;51.418;7.286;2023-05-07T02:02:34;99875.34;;;14.80;90.41
55538;BME280;41383;51.418;7.286;2023-05-07T02:04:59;99886.63;;;14.74;90.24
55538;BME280;41383;51.418;7.286;2023-05-07T02:07:26;99882.00;;;14.69;90.65
55538;BME280;41383;51.418;7.286;2023-05-07T02:09:51;99880.38;;;14.68;90.96
55538;BME280;41383;51.418;7.286;2023-05-07T02:12:16;99883.16;;;14.63;90.57
55538;BME280;41383;51.418;7.286;2023-05-07T02:14:41;99887.34;;;14.55;90.28
55538;BME280;41383;51.418;7.286;2023-05-07T02:17:07;99879.47;;;14.48;90.70
55538;BME280;41383;51.418;7.286;2023-05-07T02:19:32;99880.09;;;14.40;91.23
55538;BME280;41383;51.418;7.286;2023-05-07T02:21:58;99875.19;;;14.36;91.08
55538;BME280;41383;51.418;7.286;2023-05-07T02:24:23;99870.28;;;14.33;91.25
55538;BME280;41383;51.418;7.286;2023-05-07T02:26:48;99867.84;;;14.32;91.28
55538;BME280;41383;51.418;7.286;2023-05-07T02:29:13;99873.03;;;14.33;91.43
55538;BME280;41383;51.418;7.286;2023-05-07T02:31:39;99873.88;;;14.29;91.30
55538;BME280;41383;51.418;7.286;2023-05-07T02:34:04;99871.19;;;14.23;91.32
55538;BME280;41383;51.418;7.286;2023-05-07T02:36:29;99870.38;;;14.23;91.38
55538;BME280;41383;51.418;7.286;2023-05-07T02:38:55;99865.44;;;14.20;91.46
55538;BME280;41383;51.418;7.286;2023-05-07T02:41:20;99865.41;;;14.25;91.60
55538;BME280;41383;51.418;7.286;2023-05-07T02:43:46;99868.41;;;14.29;91.79
55538;BME280;41383;51.418;7.286;2023-05-07T02:46:11;99868.06;;;14.35;91.80
55538;BME280;41383;51.418;7.286;2023-05-07T02:48:36;99862.00;;;14.39;91.01
55538;BME280;41383;51.418;7.286;2023-05-07T02:51:02;99864.75;;;14.39;90.95
55538;BME280;41383;51.418;7.286;2023-05-07T02:53:27;99862.59;;;14.35;90.89
55538;BME280;41383;51.418;7.286;2023-05-07T02:55:56;99865.34;;;14.30;91.11
55538;BME280;41383;51.418;7.286;2023-05-07T02:58:21;99870.59;;;14.27;91.09
55538;BME280;41383;51.418;7.286;2023-05-07T03:00:47;99870.91;;;14.25;91.30
55538;BME280;41383;51.418;7.286;2023-05-07T03:03:13;99869.75;;;14.31;91.21
55538;BME280;41383;51.418;7.286;2023-05-07T03:05:38;99862.09;;;14.28;90.76
55538;BME280;41383;51.418;7.286;2023-05-07T03:08:04;99862.91;;;14.29;90.94
55538;BME280;41383;51.418;7.286;2023-05-07T03:10:29;99860.47;;;14.27;90.65
55538;BME280;41383;51.418;7.286;2023-05-07T03:12:55;99857.75;;;14.22;91.15
55538;BME280;41383;51.418;7.286;2023-05-07T03:15:20;99868.16;;;14.25;90.84
55538;BME280;41383;51.418;7.286;2023-05-07T03:17:47;99867.31;;;14.24;91.11
55538;BME280;41383;51.418;7.286;2023-05-07T03:20:12;99867.91;;;14.21;91.07
55538;BME280;41383;51.418;7.286;2023-05-07T03:22:38;99879.94;;;14.26;90.49
55538;BME280;41383;51.418;7.286;2023-05-07T03:25:03;99863.19;;;14.27;90.93
55538;BME280;41383;51.418;7.286;2023-05-07T03:27:29;99867.56;;;14.28;90.51
55538;BME280;41383;51.418;7.286;2023-05-07T03:29:54;99869.78;;;14.26;90.75
55538;BME280;41383;51.418;7.286;2023-05-07T03:32:20;99863.50;;;14.26;91.38
55538;BME280;41383;51.418;7.286;2023-05-07T03:34:45;99867.84;;;14.27;90.78
55538;BME280;41383;51.418;7.286;2023-05-07T03:37:10;99878.84;;;14.27;91.05
55538;BME280;41383;51.418;7.286;2023-05-07T03:39:36;99873.41;;;14.21;91.49
55538;BME280;41383;51.418;7.286;2023-05-07T03:42:01;99872.03;;;14.19;91.63
55538;BME280;41383;51.418;7.286;2023-05-07T03:44:26;99867.91;;;14.21;91.58
55538;BME280;41383;51.418;7.286;2023-05-07T03:46:51;99869.31;;;14.19;91.35
55538;BME280;41383;51.418;7.286;2023-05-07T03:49:17;99873.66;;;14.20;91.43
55538;BME280;41383;51.418;7.286;2023-05-07T03:51:42;99878.06;;;14.21;91.74
55538;BME280;41383;51.418;7.286;2023-05-07T03:54:07;99872.56;;;14.21;91.71
55538;BME280;41383;51.418;7.286;2023-05-07T03:56:33;99872.00;;;14.24;91.82
55538;BME280;41383;51.418;7.286;2023-05-07T03:58:58;99870.38;;;14.23;91.99
55538;BME280;41383;51.418;7.286;2023-05-07T04:01:23;99878.59;;;14.23;92.09
55538;BME280;41383;51.418;7.286;2023-05-07T04:03:48;99872.56;;;14.21;91.80
55538;BME280;41383;51.418;7.286;2023-05-07T04:06:15;99877.22;;;14.20;92.16
55538;BME280;41383;51.418;7.286;2023-05-07T04:08:42;99880.22;;;14.24;92.35
55538;BME280;41383;51.418;7.286;2023-05-07T04:11:07;99884.84;;;14.29;92.18
55538;BME280;41383;51.418;7.286;2023-05-07T04:13:32;99888.94;;;14.31;91.89
55538;BME280;41383;51.418;7.286;2023-05-07T04:16:00;99881.81;;;14.30;91.67
55538;BME280;41383;51.418;7.286;2023-05-07T04:18:26;99885.09;;;14.32;91.41
55538;BME280;41383;51.418;7.286;2023-05-07T04:20:51;99876.84;;;14.38;91.39
55538;BME280;41383;51.418;7.286;2023-05-07T04:23:16;99879.84;;;14.36;91.65
55538;BME280;41383;51.418;7.286;2023-05-07T04:25:41;99883.94;;;14.39;91.56
55538;BME280;41383;51.418;7.286;2023-05-07T04:28:07;99888.34;;;14.40;91.29
55538;BME280;41383;51.418;7.286;2023-05-07T04:30:32;99886.16;;;14.36;92.26
55538;BME280;41383;51.418;7.286;2023-05-07T04:32:57;99894.09;;;14.38;91.84
55538;BME280;41383;51.418;7.286;2023-05-07T04:35:23;99894.88;;;14.44;91.58
55538;BME280;41383;51.418;7.286;2023-05-07T04:37:48;99895.41;;;14.46;91.64
55538;BME280;41383;51.418;7.286;2023-05-07T04:40:13;99894.22;;;14.52;91.10
55538;BME280;41383;51.418;7.286;2023-05-07T04:42:39;99894.81;;;14.49;91.45
55538;BME280;41383;51.418;7.286;2023-05-07T04:45:04;99897.28;;;14.51;91.38
55538;BME280;41383;51.418;7.286;2023-05-07T04:47:30;99890.94;;;14.55;91.14
55538;BME280;41383;51.418;7.286;2023-05-07T04:49:55;99895.56;;;14.60;91.10
55538;BME280;41383;51.418;7.286;2023-05-07T04:52:20;99893.34;;;14.62;90.97
55538;BME280;41383;51.418;7.286;2023-05-07T04:54:46;99899.06;;;14.66;91.27
55538;BME280;41383;51.418;7.286;2023-05-07T04:57:11;99899.25;;;14.75;90.93
55538;BME280;41383;51.418;7.286;2023-05-07T04:59:36;99897.84;;;14.77;90.85
55538;BME280;41383;51.418;7.286;2023-05-07T05:02:02;99898.38;;;14.79;90.92
55538;BME280;41383;51.418;7.286;2023-05-07T05:04:29;99893.97;;;14.84;90.74
55538;BME280;41383;51.418;7.286;2023-05-07T05:06:54;99897.81;;;14.82;91.07
55538;BME280;41383;51.418;7.286;2023-05-07T05:09:20;99894.25;;;14.82;90.83
55538;BME280;41383;51.418;7.286;2023-05-07T05:11:45;99904.13;;;14.83;90.87
55538;BME280;41383;51.418;7.286;2023-05-07T05:14:11;99899.69;;;14.87;90.61
55538;BME280;41383;51.418;7.286;2023-05-07T05:16:36;99909.88;;;14.87;90.42
55538;BME280;41383;51.418;7.286;2023-05-07T05:19:02;99906.00;;;14.88;90.67
55538;BME280;41383;51.418;7.286;2023-05-07T05:21:27;99909.28;;;14.90;90.47
55538;BME280;41383;51.418;7.286;2023-05-07T05:23:52;99911.97;;;14.95;90.53
55538;BME280;41383;51.418;7.286;2023-05-07T05:26:18;99909.75;;;14.97;90.19
55538;BME280;41383;51.418;7.286;2023-05-07T05:28:43;99914.38;;;15.02;89.69
55538;BME280;41383;51.418;7.286;2023-05-07T05:31:09;99904.97;;;15.08;89.46
55538;BME280;41383;51.418;7.286;2023-05-07T05:33:34;99906.84;;;15.13;89.21
55538;BME280;41383;51.418;7.286;2023-05-07T05:36:00;99909.28;;;15.14;89.64
55538;BME280;41383;51.418;7.286;2023-05-07T05:38:25;99913.41;;;15.17;89.18
55538;BME280;41383;51.418;7.286;2023-05-07T05:40:51;99907.53;;;15.24;89.55
55538;BME280;41383;51.418;7.286;2023-05-07T05:43:16;99914.69;;;15.25;89.41
55538;BME280;41383;51.418;7.286;2023-05-07T05:45:41;99914.31;;;15.32;89.01
55538;BME280;41383;51.418;7.286;2023-05-07T05:48:06;99904.63;;;15.39;88.71
55538;BME280;41383;51.418;7.286;2023-05-07T05:50:33;99905.94;;;15.42;88.58
55538;BME280;41383;51.418;7.286;2023-05-07T05:53:00;99910.91;;;15.40;88.91
55538;BME280;41383;51.418;7.286;2023-05-07T05:55:26;99914.19;;;15.42;88.89
55538;BME280;41383;51.418;7.286;2023-05-07T05:57:51;99909.97;;;15.50;88.56
55538;BME280;41383;51.418;7.286;2023-05-07T06:00:16;99916.50;;;15.54;88.30
55538;BME280;41383;51.418;7.286;2023-05-07T06:02:42;99918.31;;;15.64;88.08
55538;BME280;41383;51.418;7.286;2023-05-07T06:05:10;99919.84;;;15.70;87.29
55538;BME280;41383;51.418;7.286;2023-05-07T06:07:35;99913.25;;;15.71;87.47
55538;BME280;41383;51.418;7.286;2023-05-07T06:10:01;99913.44;;;15.80;86.86
55538;BME280;41383;51.418;7.286;2023-05-07T06:12:26;99911.41;;;15.86;86.58
55538;BME280;41383;51.418;7.286;2023-05-07T06:14:52;99925.91;;;15.92;86.92
55538;BME280;41383;51.418;7.286;2023-05-07T06:17:17;99921.66;;;15.99;86.71
55538;BME280;41383;51.418;7.286;2023-05-07T06:19:42;99918.59;;;16.01;86.36
55538;BME280;41383;51.418;7.286;2023-05-07T06:22:08;99931.03;;;15.98;86.94
55538;BME280;41383;51.418;7.286;2023-05-07T06:24:33;99927.47;;;15.98;86.89
55538;BME280;41383;51.418;7.286;2023-05-07T06:26:58;99925.47;;;16.04;86.58
55538;BME280;41383;51.418;7.286;2023-05-07T06:29:24;99928.16;;;16.09;86.44
55538;BME280;41383;51.418;7.286;2023-05-07T06:31:53;99922.38;;;16.10;86.54
55538;BME280;41383;51.418;7.286;2023-05-07T06:34:19;99932.53;;;16.10;86.46
55538;BME280;41383;51.418;7.286;2023-05-07T06:36:44;99936.25;;;16.19;85.87
55538;BME280;41383;51.418;7.286;2023-05-07T06:39:09;99932.69;;;16.19;86.21
55538;BME280;41383;51.418;7.286;2023-05-07T06:41:34;99933.44;;;16.25;85.49
55538;BME280;41383;51.418;7.286;2023-05-07T06:44:01;99939.72;;;16.25;85.84
55538;BME280;41383;51.418;7.286;2023-05-07T06:46:27;99937.75;;;16.31;85.53
55538;BME280;41383;51.418;7.286;2023-05-07T06:48:52;99946.50;;;16.33;85.62
55538;BME280;41383;51.418;7.286;2023-05-07T06:51:18;99947.75;;;16.41;85.36
55538;BME280;41383;51.418;7.286;2023-05-07T06:53:43;99950.34;;;16.51;84.34
55538;BME280;41383;51.418;7.286;2023-05-07T06:56:08;99953.31;;;16.55;84.23
55538;BME280;41383;51.418;7.286;2023-05-07T06:58:34;99946.59;;;16.61;84.08
55538;BME280;41383;51.418;7.286;2023-05-07T07:00:59;99939.44;;;16.60;84.03
55538;BME280;41383;51.418;7.286;2023-05-07T07:03:24;99932.53;;;16.63;84.05
55538;BME280;41383;51.418;7.286;2023-05-07T07:05:52;99945.25;;;16.59;84.58
55538;BME280;41383;51.418;7.286;2023-05-07T07:08:18;99938.25;;;16.66;83.99
55538;BME280;41383;51.418;7.286;2023-05-07T07:10:43;99933.19;;;16.74;83.59
55538;BME280;41383;51.418;7.286;2023-05-07T07:13:08;99938.78;;;16.83;83.06
55538;BME280;41383;51.418;7.286;2023-05-07T07:15:33;99933.50;;;16.86;83.14
55538;BME280;41383;51.418;7.286;2023-05-07T07:17:59;99945.44;;;16.96;82.59
55538;BME280;41383;51.418;7.286;2023-05-07T07:20:24;99932.72;;;17.00;81.99
55538;BME280;41383;51.418;7.286;2023-05-07T07:22:49;99934.84;;;17.03;82.34
55538;BME280;41383;51.418;7.286;2023-05-07T07:25:15;99937.09;;;17.01;82.24
55538;BME280;41383;51.418;7.286;2023-05-07T07:27:40;99931.56;;;17.01;82.18
55538;BME280;41383;51.418;7.286;2023-05-07T07:30:06;99932.59;;;17.05;82.20
55538;BME280;41383;51.418;7.286;2023-05-07T07:32:31;99932.00;;;17.08;82.01
55538;BME280;41383;51.418;7.286;2023-05-07T07:34:58;99940.78;;;17.10;82.14
55538;BME280;41383;51.418;7.286;2023-05-07T07:37:23;99938.78;;;17.16;81.27
55538;BME280;41383;51.418;7.286;2023-05-07T07:39:50;99936.31;;;17.14;81.37
55538;BME280;41383;51.418;7.286;2023-05-07T07:42:15;99937.25;;;17.24;80.88
55538;BME280;41383;51.418;7.286;2023-05-07T07:44:41;99936.53;;;17.32;80.05
55538;BME280;41383;51.418;7.286;2023-05-07T07:47:06;99935.09;;;17.35;80.41
55538;BME280;41383;51.418;7.286;2023-05-07T07:49:31;99933.56;;;17.43;79.92
55538;BME280;41383;51.418;7.286;2023-05-07T07:51:57;99935.81;;;17.41;79.56
55538;BME280;41383;51.418;7.286;2023-05-07T07:54:24;99941.00;;;17.42;79.96
55538;BME280;41383;51.418;7.286;2023-05-07T07:56:50;99948.88;;;17.49;79.38
55538;BME280;41383;51.418;7.286;2023-05-07T07:59:16;99946.91;;;17.49;79.64
55538;BME280;41383;51.418;7.286;2023-05-07T08:01:44;99947.94;;;17.54;79.11
55538;BME280;41383;51.418;7.286;2023-05-07T08:04:10;99950.09;;;17.57;79.27
55538;BME280;41383;51.418;7.286;2023-05-07T08:06:35;99955.59;;;17.57;79.68
55538;BME280;41383;51.418;7.286;2023-05-07T08:12:22;99968.75;;;17.60;80.01
55538;BME280;41383;51.418;7.286;2023-05-07T08:14:47;99965.19;;;17.59;79.80
55538;BME280;41383;51.418;7.286;2023-05-07T08:17:12;99967.03;;;17.64;79.83
55538;BME280;41383;51.418;7.286;2023-05-07T08:19:40;99961.09;;;17.71;79.34
55538;BME280;41383;51.418;7.286;2023-05-07T08:22:06;99962.00;;;17.80;79.10
55538;BME280;41383;51.418;7.286;2023-05-07T08:24:31;99973.81;;;17.95;78.46
55538;BME280;41383;51.418;7.286;2023-05-07T08:26:56;99967.66;;;17.98;78.54
55538;BME280;41383;51.418;7.286;2023-05-07T08:29:22;99969.69;;;18.06;77.72
55538;BME280;41383;51.418;7.286;2023-05-07T08:31:47;99972.16;;;18.08;78.01
55538;BME280;41383;51.418;7.286;2023-05-07T08:34:12;99969.09;;;18.09;78.29
55538;BME280;41383;51.418;7.286;2023-05-07T08:36:38;99964.97;;;18.21;77.67
55538;BME280;41383;51.418;7.286;2023-05-07T08:39:03;99966.19;;;18.29;76.88
55538;BME280;41383;51.418;7.286;2023-05-07T08:41:29;99966.88;;;18.35;76.46
55538;BME280;41383;51.418;7.286;2023-05-07T08:43:58;99964.50;;;18.42;76.26
55538;BME280;41383;51.418;7.286;2023-05-07T08:46:25;99966.50;;;18.50;76.39
55538;BME280;41383;51.418;7.286;2023-05-07T08:48:51;99964.63;;;18.60;75.91
55538;BME280;41383;51.418;7.286;2023-05-07T08:51:21;99960.75;;;18.61;76.17
55538;BME280;41383;51.418;7.286;2023-05-07T08:53:47;99971.16;;;18.64;76.04
55538;BME280;41383;51.418;7.286;2023-05-07T08:56:16;99974.91;;;18.68;75.71
55538;BME280;41383;51.418;7.286;2023-05-07T08:58:43;99960.97;;;18.73;75.67
55538;BME280;41383;51.418;7.286;2023-05-07T09:01:10;99963.47;;;18.84;75.00
55538;BME280;41383;51.418;7.286;2023-05-07T09:03:38;99964.63;;;18.92;74.97
55538;BME280;41383;51.418;7.286;2023-05-07T09:06:04;99960.31;;;18.99;74.30
55538;BME280;41383;51.418;7.286;2023-05-07T09:08:30;99959.53;;;19.08;75.12
55538;BME280;41383;51.418;7.286;2023-05-07T09:10:55;99960.91;;;19.19;74.37
55538;BME280;41383;51.418;7.286;2023-05-07T09:13:20;99957.38;;;19.28;73.79
55538;BME280;41383;51.418;7.286;2023-05-07T09:15:46;99956.88;;;19.25;73.71
55538;BME280;41383;51.418;7.286;2023-05-07T09:18:14;99963.25;;;19.35;73.17
55538;BME280;41383;51.418;7.286;2023-05-07T09:20:40;99968.00;;;19.43;73.46
55538;BME280;41383;51.418;7.286;2023-05-07T09:23:06;99970.97;;;19.56;73.31
55538;BME280;41383;51.418;7.286;2023-05-07T09:25:33;99961.22;;;19.67;73.11
55538;BME280;41383;51.418;7.286;2023-05-07T09:28:02;99953.78;;;19.77;71.45
55538;BME280;41383;51.418;7.286;2023-05-07T09:30:29;99954.91;;;19.85;72.18
55538;BME280;41383;51.418;7.286;2023-05-07T09:32:54;99952.31;;;19.88;69.38
55538;BME280;41383;51.418;7.286;2023-05-07T09:35:20;99951.50;;;19.88;69.56
55538;BME280;41383;51.418;7.286;2023-05-07T09:37:56;99951.16;;;19.89;69.92
55538;BME280;41383;51.418;7.286;2023-05-07T09:40:22;99945.47;;;19.94;68.76
55538;BME280;41383;51.418;7.286;2023-05-07T09:42:49;99964.69;;;20.00;68.30
55538;BME280;41383;51.418;7.286;2023-05-07T09:45:15;99952.31;;;20.06;68.19
55538;BME280;41383;51.418;7.286;2023-05-07T09:47:42;99951.53;;;20.14;67.84
55538;BME280;41383;51.418;7.286;2023-05-07T09:50:10;99950.25;;;20.21;68.31
55538;BME280;41383;51.418;7.286;2023-05-07T09:52:38;99959.69;;;20.37;68.59
55538;BME280;41383;51.418;7.286;2023-05-07T09:55:06;99954.44;;;20.62;68.66
55538;BME280;41383;51.418;7.286;2023-05-07T09:57:32;99955.72;;;20.74;67.25
55538;BME280;41383;51.418;7.286;2023-05-07T09:59:59;99948.31;;;20.87;66.79
55538;BME280;41383;51.418;7.286;2023-05-07T10:02:28;99949.94;;;21.06;66.29
55538;BME280;41383;51.418;7.286;2023-05-07T10:04:55;99954.16;;;21.12;66.07
55538;BME280;41383;51.418;7.286;2023-05-07T10:07:21;99955.66;;;20.92;65.61
55538;BME280;41383;51.418;7.286;2023-05-07T10:09:47;99958.28;;;20.88;65.71
55538;BME280;41383;51.418;7.286;2023-05-07T10:12:12;99959.44;;;20.78;66.38
55538;BME280;41383;51.418;7.286;2023-05-07T10:14:38;99958.47;;;20.74;66.74
55538;BME280;41383;51.418;7.286;2023-05-07T10:17:03;99950.81;;;20.71;67.20
55538;BME280;41383;51.418;7.286;2023-05-07T10:19:29;99952.28;;;20.77;67.26
55538;BME280;41383;51.418;7.286;2023-05-07T10:21:59;99945.59;;;20.78;66.38
55538;BME280;41383;51.418;7.286;2023-05-07T10:24:29;99952.13;;;20.73;66.59
55538;BME280;41383;51.418;7.286;2023-05-07T10:26:56;99948.72;;;20.68;67.03
55538;BME280;41383;51.418;7.286;2023-05-07T10:34:53;99949.84;;;20.67;66.84
55538;BME280;41383;51.418;7.286;2023-05-07T10:37:20;99953.78;;;20.57;67.65
55538;BME280;41383;51.418;7.286;2023-05-07T10:39:46;99957.03;;;20.59;67.31
55538;BME280;41383;51.418;7.286;2023-05-07T10:42:12;99947.94;;;20.49;67.98
55538;BME280;41383;51.418;7.286;2023-05-07T10:44:38;99954.44;;;20.53;67.85
55538;BME280;41383;51.418;7.286;2023-05-07T10:47:05;99953.81;;;20.48;67.81
55538;BME280;41383;51.418;7.286;2023-05-07T10:49:31;99958.53;;;20.47;67.57
55538;BME280;41383;51.418;7.286;2023-05-07T10:52:16;99945.00;;;20.46;66.89
55538;BME280;41383;51.418;7.286;2023-05-07T10:54:42;99948.75;;;20.50;66.76
55538;BME280;41383;51.418;7.286;2023-05-07T10:59:59;99950.56;;;20.46;66.87
55538;BME280;41383;51.418;7.286;2023-05-07T11:05:25;99941.44;;;20.45;65.81
55538;BME280;41383;51.418;7.286;2023-05-07T11:07:59;99952.84;;;20.44;66.19
55538;BME280;41383;51.418;7.286;2023-05-07T11:10:50;99942.41;;;20.40;65.46
55538;BME280;41383;51.418;7.286;2023-05-07T11:13:17;99947.94;;;20.40;66.69
55538;BME280;41383;51.418;7.286;2023-05-07T11:15:47;99943.22;;;20.50;63.55
55538;BME280;41383;51.418;7.286;2023-05-07T11:18:14;99938.16;;;20.52;64.75
55538;BME280;41383;51.418;7.286;2023-05-07T11:20:47;99946.00;;;20.50;65.05
55538;BME280;41383;51.418;7.286;2023-05-07T11:26:07;99939.47;;;20.46;64.56
55538;BME280;41383;51.418;7.286;2023-05-07T11:28:38;99942.88;;;20.42;63.36
55538;BME280;41383;51.418;7.286;2023-05-07T11:31:04;99943.56;;;20.39;64.11
55538;BME280;41383;51.418;7.286;2023-05-07T11:33:33;99949.72;;;20.36;64.70
55538;BME280;41383;51.418;7.286;2023-05-07T11:36:00;99943.06;;;20.37;63.70
55538;BME280;41383;51.418;7.286;2023-05-07T11:38:25;99945.84;;;20.28;64.93
55538;BME280;41383;51.418;7.286;2023-05-07T11:40:57;99949.59;;;20.24;64.85
55538;BME280;41383;51.418;7.286;2023-05-07T11:43:24;99944.69;;;20.21;63.78
55538;BME280;41383;51.418;7.286;2023-05-07T11:45:49;99952.34;;;20.15;65.15
55538;BME280;41383;51.418;7.286;2023-05-07T11:48:16;99948.63;;;20.11;62.30
55538;BME280;41383;51.418;7.286;2023-05-07T11:53:26;99955.59;;;20.08;63.62
55538;BME280;41383;51.418;7.286;2023-05-07T11:55:53;99953.13;;;20.06;63.97
55538;BME280;41383;51.418;7.286;2023-05-07T11:58:25;99961.78;;;20.05;64.95
55538;BME280;41383;51.418;7.286;2023-05-07T12:00:53;99955.09;;;20.06;63.95
55538;BME280;41383;51.418;7.286;2023-05-07T12:03:20;99952.84;;;20.08;65.06
55538;BME280;41383;51.418;7.286;2023-05-07T12:05:46;99943.09;;;20.20;65.34
55538;BME280;41383;51.418;7.286;2023-05-07T12:08:16;99939.81;;;20.44;64.61
55538;BME280;41383;51.418;7.286;2023-05-07T12:10:42;99945.94;;;20.76;64.22
55538;BME280;41383;51.418;7.286;2023-05-07T12:13:15;99946.69;;;21.04;62.23
55538;BME280;41383;51.418;7.286;2023-05-07T12:15:42;99954.81;;;21.09;62.95
55538;BME280;41383;51.418;7.286;2023-05-07T12:18:07;99942.22;;;21.20;63.77
55538;BME280;41383;51.418;7.286;2023-05-07T12:20:34;99951.00;;;21.22;63.49
55538;BME280;41383;51.418;7.286;2023-05-07T12:23:01;99955.09;;;21.25;62.69
55538;BME280;41383;51.418;7.286;2023-05-07T12:25:26;99944.53;;;21.09;63.60
55538;BME280;41383;51.418;7.286;2023-05-07T12:27:52;99955.34;;;21.02;62.65
55538;BME280;41383;51.418;7.286;2023-05-07T12:30:18;99954.03;;;20.91;63.15
55538;BME280;41383;51.418;7.286;2023-05-07T12:32:45;99958.28;;;20.88;62.68
55538;BME280;41383;51.418;7.286;2023-05-07T12:35:10;99961.75;;;20.76;64.02
55538;BME280;41383;51.418;7.286;2023-05-07T12:37:36;99964.06;;;20.56;64.61
55538;BME280;41383;51.418;7.286;2023-05-07T12:40:06;99964.72;;;20.44;64.54
55538;BME280;41383;51.418;7.286;2023-05-07T12:42:39;99970.41;;;20.30;64.96
55538;BME280;41383;51.418;7.286;2023-05-07T12:45:15;99960.97;;;20.31;65.02
55538;BME280;41383;51.418;7.286;2023-05-07T12:47:46;99968.63;;;20.34;65.68
55538;BME280;41383;51.418;7.286;2023-05-07T12:50:15;99968.97;;;20.41;64.98
55538;BME280;41383;51.418;7.286;2023-05-07T12:52:41;99969.28;;;20.40;64.60
55538;BME280;41383;51.418;7.286;2023-05-07T12:55:08;99985.72;;;20.36;65.06
55538;BME280;41383;51.418;7.286;2023-05-07T12:57:47;99973.19;;;20.39;64.59
55538;BME280;41383;51.418;7.286;2023-05-07T13:00:13;99974.00;;;20.39;64.19
55538;BME280;41383;51.418;7.286;2023-05-07T13:02:40;99981.34;;;20.35;64.90
55538;BME280;41383;51.418;7.286;2023-05-07T13:05:06;99995.00;;;20.23;65.86
55538;BME280;41383;51.418;7.286;2023-05-07T13:07:31;99997.59;;;20.01;65.94
55538;BME280;41383;51.418;7.286;2023-05-07T13:09:56;99996.41;;;19.93;66.38
55538;BME280;41383;51.418;7.286;2023-05-07T13:12:21;99993.47;;;19.81;67.10
55538;BME280;41383;51.418;7.286;2023-05-07T13:14:47;99991.50;;;19.73;68.13